createdAt,value
2017-10-27T00:01:05.631Z,99.90
2017-10-27T00:03:32.348Z,99.90
2017-10-27T00:05:59.046Z,99.90
2017-10-27T00:08:25.012Z,99.90
2017-10-27T00:10:50.982Z,99.90
2017-10-27T00:13:16.980Z,99.90
2017-10-27T00:15:42.922Z,99.90
2017-10-27T00:18:08.836Z,99.90
2017-10-27T00:20:35.197Z,99.90
2017-10-27T00:23:01.131Z,99.90
2017-10-27T00:25:27.824Z,99.90
2017-10-27T00:27:54.457Z,99.90
2017-10-27T00:30:20.421Z,99.90
2017-10-27T00:32:46.447Z,99.90
2017-10-27T00:35:12.575Z,99.90
2017-10-27T00:37:38.913Z,99.90
2017-10-27T00:40:05.697Z,99.90
2017-10-27T00:42:31.878Z,99.90
2017-10-27T00:44:58.868Z,99.90
2017-10-27T00:47:25.981Z,99.90
2017-10-27T00:49:51.924Z,99.90
2017-10-27T00:52:17.880Z,99.90
2017-10-27T00:54:43.839Z,99.90
2017-10-27T00:57:09.819Z,99.90
2017-10-27T00:59:35.747Z,99.90
2017-10-27T01:02:01.700Z,99.90
2017-10-27T01:04:27.670Z,99.90
2017-10-27T01:06:53.711Z,99.90
2017-10-27T01:09:19.672Z,99.90
2017-10-27T01:11:46.544Z,99.90
2017-10-27T01:14:12.675Z,99.90
2017-10-27T01:16:38.693Z,99.90
2017-10-27T01:19:04.716Z,99.90
2017-10-27T01:21:30.662Z,99.90
2017-10-27T01:23:56.734Z,99.90
2017-10-27T01:26:22.792Z,99.90
2017-10-27T01:28:48.712Z,99.90
2017-10-27T01:31:14.757Z,99.90
2017-10-27T01:33:40.751Z,99.90
2017-10-27T01:36:06.798Z,99.90
2017-10-27T01:38:32.798Z,99.90
2017-10-27T01:40:58.772Z,99.90
2017-10-27T01:43:24.849Z,99.90
2017-10-27T01:45:50.844Z,99.90
2017-10-27T01:48:18.440Z,99.90
2017-10-27T01:50:44.543Z,99.90
2017-10-27T01:53:10.673Z,99.90
2017-10-27T01:55:36.606Z,99.90
2017-10-27T01:58:03.900Z,99.90
2017-10-27T02:00:30.317Z,99.90
2017-10-27T02:02:56.286Z,99.90
2017-10-27T02:05:22.231Z,99.90
2017-10-27T02:07:48.183Z,99.90
2017-10-27T02:10:14.947Z,99.90
2017-10-27T02:12:40.968Z,99.90
2017-10-27T02:15:06.927Z,99.90
2017-10-27T02:17:33.672Z,99.90
2017-10-27T02:19:59.614Z,99.90
2017-10-27T02:22:25.585Z,99.90
2017-10-27T02:24:51.609Z,99.90
2017-10-27T02:27:17.615Z,99.90
2017-10-27T02:29:43.559Z,99.90
2017-10-27T02:32:09.553Z,99.90
2017-10-27T02:34:36.385Z,99.90
2017-10-27T02:37:02.428Z,99.90
2017-10-27T02:39:29.198Z,99.90
2017-10-27T02:41:55.720Z,99.90
2017-10-27T02:44:21.778Z,99.90
2017-10-27T02:46:47.704Z,99.90
2017-10-27T02:49:13.705Z,99.90
2017-10-27T02:51:39.652Z,99.90
2017-10-27T02:54:05.673Z,99.90
2017-10-27T02:56:31.637Z,99.90
2017-10-27T02:58:57.632Z,99.90
2017-10-27T03:01:24.629Z,99.90
2017-10-27T03:03:50.635Z,99.90
2017-10-27T03:06:16.765Z,99.90
2017-10-27T03:08:42.954Z,99.90
2017-10-27T03:11:08.927Z,99.90
2017-10-27T03:13:35.824Z,99.90
2017-10-27T03:16:01.770Z,99.90
2017-10-27T03:18:27.780Z,99.90
2017-10-27T03:20:54.437Z,99.90
2017-10-27T03:23:20.440Z,99.90
2017-10-27T03:25:46.402Z,99.90
2017-10-27T03:28:12.383Z,99.90
2017-10-27T03:30:39.112Z,99.90
2017-10-27T03:33:05.163Z,99.90
2017-10-27T03:35:31.140Z,99.90
2017-10-27T03:37:57.132Z,99.90
2017-10-27T03:40:23.247Z,99.90
2017-10-27T03:42:49.248Z,99.90
2017-10-27T03:45:15.283Z,99.90
2017-10-27T03:47:41.314Z,99.90
2017-10-27T03:50:07.360Z,99.90
2017-10-27T03:52:33.344Z,99.90
2017-10-27T03:54:59.284Z,99.90
2017-10-27T03:57:26.738Z,99.90
2017-10-27T03:59:52.754Z,99.90
2017-10-27T04:02:18.843Z,99.90
2017-10-27T04:04:44.797Z,99.90
2017-10-27T04:07:10.782Z,99.90
2017-10-27T04:09:37.543Z,99.90
2017-10-27T04:12:03.490Z,99.90
2017-10-27T04:14:29.516Z,99.90
2017-10-27T04:16:56.767Z,99.90
2017-10-27T04:19:22.793Z,99.90
2017-10-27T04:21:48.796Z,99.90
2017-10-27T04:24:14.879Z,99.90
2017-10-27T04:26:40.859Z,99.90
2017-10-27T04:29:06.872Z,99.90
2017-10-27T04:31:32.961Z,99.90
2017-10-27T04:33:58.931Z,99.90
2017-10-27T04:36:24.921Z,99.90
2017-10-27T04:38:50.902Z,99.90
2017-10-27T04:41:16.864Z,99.90
2017-10-27T04:43:43.276Z,99.90
2017-10-27T04:46:09.433Z,99.90
2017-10-27T04:48:35.408Z,99.90
2017-10-27T04:51:02.211Z,99.90
2017-10-27T04:53:28.164Z,99.90
2017-10-27T04:55:54.160Z,99.90
2017-10-27T04:58:20.193Z,99.90
2017-10-27T05:00:46.247Z,99.90
2017-10-27T05:03:12.965Z,99.90
2017-10-27T05:05:38.984Z,99.90
2017-10-27T05:08:05.087Z,99.90
2017-10-27T05:10:31.232Z,99.90
2017-10-27T05:12:58.338Z,99.90
2017-10-27T05:15:24.361Z,99.90
2017-10-27T05:17:56.668Z,99.90
2017-10-27T05:20:28.765Z,99.90
2017-10-27T05:23:01.071Z,99.90
2017-10-27T05:25:27.270Z,99.90
2017-10-27T05:27:54.962Z,99.90
2017-10-27T05:30:20.958Z,99.90
2017-10-27T05:32:47.675Z,99.90
2017-10-27T05:35:13.743Z,99.90
2017-10-27T05:37:39.828Z,99.90
2017-10-27T05:40:07.301Z,99.90
2017-10-27T05:42:33.353Z,99.90
2017-10-27T05:44:59.370Z,99.90
2017-10-27T05:47:25.443Z,99.90
2017-10-27T05:49:51.504Z,99.90
2017-10-27T05:52:17.575Z,99.90
2017-10-27T05:54:43.559Z,99.90
2017-10-27T05:57:09.755Z,99.90
2017-10-27T05:59:35.773Z,99.90
2017-10-27T06:02:01.804Z,99.90
2017-10-27T06:04:28.139Z,99.90
2017-10-27T06:06:54.203Z,99.90
2017-10-27T06:09:20.224Z,99.90
2017-10-27T06:11:47.657Z,99.90
2017-10-27T06:14:13.708Z,99.90
2017-10-27T06:16:39.792Z,99.90
2017-10-27T06:19:05.756Z,99.90
2017-10-27T06:21:31.886Z,99.90
2017-10-27T06:23:58.022Z,99.90
2017-10-27T06:26:24.409Z,99.90
2017-10-27T06:28:50.608Z,99.90
2017-10-27T06:31:16.572Z,99.90
2017-10-27T06:33:42.806Z,99.90
2017-10-27T06:36:08.814Z,99.90
2017-10-27T06:38:34.829Z,99.90
2017-10-27T06:41:01.832Z,99.90
2017-10-27T06:43:27.780Z,99.90
2017-10-27T06:45:54.564Z,99.90
2017-10-27T06:48:20.569Z,99.90
2017-10-27T06:50:46.703Z,99.90
2017-10-27T06:53:12.712Z,99.90
2017-10-27T06:55:38.676Z,99.90
2017-10-27T06:58:04.645Z,99.90
2017-10-27T07:00:30.594Z,99.90
2017-10-27T07:02:56.592Z,99.90
2017-10-27T07:05:23.133Z,99.90
2017-10-27T07:07:49.071Z,99.90
2017-10-27T07:10:15.056Z,99.90
2017-10-27T07:12:41.889Z,99.90
2017-10-27T07:15:08.582Z,99.90
2017-10-27T07:17:34.701Z,99.90
2017-10-27T07:20:00.849Z,99.90
2017-10-27T07:22:26.820Z,99.90
2017-10-27T07:24:52.901Z,99.90
2017-10-27T07:27:19.708Z,99.90
2017-10-27T07:29:46.901Z,99.90
2017-10-27T07:32:12.867Z,99.90
2017-10-27T07:34:39.463Z,99.90
2017-10-27T07:37:05.460Z,99.90
2017-10-27T07:39:31.482Z,99.90
2017-10-27T07:41:57.404Z,99.90
2017-10-27T07:44:23.587Z,99.90
2017-10-27T07:46:49.548Z,99.90
2017-10-27T07:49:15.603Z,99.90
2017-10-27T07:51:41.609Z,99.90
2017-10-27T07:54:07.635Z,99.90
2017-10-27T07:56:33.748Z,99.90
2017-10-27T07:58:59.798Z,99.90
2017-10-27T08:01:25.795Z,99.90
2017-10-27T08:03:51.803Z,99.90
2017-10-27T08:06:17.848Z,99.90
2017-10-27T08:08:44.073Z,99.90
2017-10-27T08:11:10.072Z,99.90
2017-10-27T08:13:36.124Z,99.90
2017-10-27T08:16:02.088Z,99.90
2017-10-27T08:18:28.032Z,99.90
2017-10-27T08:20:54.040Z,99.90
2017-10-27T08:23:19.986Z,99.90
2017-10-27T08:25:45.935Z,99.90
2017-10-27T08:28:11.879Z,99.90
2017-10-27T08:30:37.954Z,99.90
2017-10-27T08:33:05.484Z,99.90
2017-10-27T08:35:31.459Z,99.90
2017-10-27T08:37:57.619Z,99.90
2017-10-27T08:40:23.634Z,99.90
2017-10-27T08:42:49.676Z,99.90
2017-10-27T08:45:15.658Z,99.90
2017-10-27T08:47:41.704Z,99.90
2017-10-27T08:50:08.787Z,99.90
2017-10-27T08:52:34.840Z,99.90
2017-10-27T08:55:02.566Z,99.90
2017-10-27T08:57:28.846Z,99.90
2017-10-27T08:59:55.894Z,99.90
2017-10-27T09:02:22.716Z,99.90
2017-10-27T09:04:48.780Z,99.90
2017-10-27T09:07:14.757Z,99.20
2017-10-27T09:09:40.935Z,99.60
2017-10-27T09:12:07.034Z,99.20
2017-10-27T09:14:33.908Z,99.50
2017-10-27T09:17:00.921Z,99.40
2017-10-27T09:19:26.931Z,99.80
2017-10-27T09:21:54.864Z,99.80
2017-10-27T09:24:20.857Z,99.60
2017-10-27T09:26:46.843Z,98.90
2017-10-27T09:29:12.837Z,98.50
2017-10-27T09:31:38.866Z,98.60
2017-10-27T09:34:04.800Z,98.00
2017-10-27T09:36:30.796Z,98.30
2017-10-27T09:38:56.883Z,98.40
2017-10-27T09:41:22.857Z,98.40
2017-10-27T09:43:48.808Z,98.70
2017-10-27T09:46:14.819Z,99.20
2017-10-27T09:48:40.803Z,98.70
2017-10-27T09:51:06.998Z,98.30
2017-10-27T09:53:33.896Z,98.20
2017-10-27T09:56:00.875Z,98.20
2017-10-27T09:58:26.905Z,97.70
2017-10-27T10:00:52.887Z,97.70
2017-10-27T10:03:18.912Z,97.60
2017-10-27T10:05:44.866Z,96.90
2017-10-27T10:08:11.877Z,96.70
2017-10-27T10:10:37.908Z,97.00
2017-10-27T10:13:03.879Z,96.80
2017-10-27T10:15:31.483Z,96.60
2017-10-27T10:17:57.653Z,96.50
2017-10-27T10:20:23.689Z,96.70
2017-10-27T10:22:49.652Z,96.70
2017-10-27T10:25:16.503Z,96.20
2017-10-27T10:27:42.684Z,96.20
2017-10-27T10:30:08.688Z,96.60
2017-10-27T10:32:34.618Z,97.10
2017-10-27T10:35:01.058Z,96.40
2017-10-27T10:37:27.659Z,96.70
2017-10-27T10:39:53.632Z,95.90
2017-10-27T10:44:57.685Z,95.40
2017-10-27T10:47:25.434Z,94.60
2017-10-27T10:49:56.659Z,92.40
2017-10-27T10:57:24.991Z,90.70
2017-10-27T11:05:22.781Z,88.90
2017-10-27T11:10:20.567Z,90.40
2017-10-27T11:15:21.006Z,88.30
2017-10-27T11:22:50.766Z,87.00
2017-10-27T11:25:20.020Z,89.00
2017-10-27T11:30:18.652Z,85.10
2017-10-27T11:32:44.684Z,83.00
2017-10-27T11:35:12.446Z,84.00
2017-10-27T11:37:38.413Z,85.90
2017-10-27T11:42:37.262Z,90.80
2017-10-27T11:45:04.529Z,90.70
2017-10-27T11:50:01.968Z,88.60
2017-10-27T11:52:29.819Z,87.00
2017-10-27T11:55:01.591Z,87.90
2017-10-27T11:59:58.661Z,85.20
2017-10-27T12:02:25.498Z,84.50
2017-10-27T12:04:51.637Z,86.50
2017-10-27T12:07:19.626Z,85.10
2017-10-27T12:14:49.423Z,84.90
2017-10-27T12:19:49.573Z,88.10
2017-10-27T12:22:16.477Z,90.30
2017-10-27T12:32:14.756Z,85.80
2017-10-27T12:34:41.387Z,85.60
2017-10-27T12:37:08.099Z,86.10
2017-10-27T12:39:34.939Z,84.90
2017-10-27T12:42:02.417Z,84.30
2017-10-27T12:44:28.465Z,84.30
2017-10-27T12:46:54.572Z,85.20
2017-10-27T12:59:24.105Z,88.70
2017-10-27T13:04:22.586Z,88.60
2017-10-27T13:06:48.584Z,89.60
2017-10-27T13:09:14.808Z,89.40
2017-10-27T13:11:40.852Z,86.00
2017-10-27T13:14:06.773Z,84.80
2017-10-27T13:16:32.799Z,83.20
2017-10-27T13:18:59.400Z,85.20
2017-10-27T13:21:25.370Z,86.20
2017-10-27T13:23:51.282Z,86.30
2017-10-27T13:26:17.324Z,85.20
2017-10-27T13:28:43.279Z,83.80
2017-10-27T13:31:10.616Z,81.90
2017-10-27T13:33:36.713Z,81.90
2017-10-27T13:36:03.274Z,81.80
2017-10-27T13:38:29.264Z,81.90
2017-10-27T13:40:56.628Z,81.70
2017-10-27T13:43:22.719Z,80.60
2017-10-27T13:45:48.652Z,79.20
2017-10-27T13:48:14.679Z,79.80
2017-10-27T13:50:40.716Z,82.00
2017-10-27T13:53:06.876Z,84.00
2017-10-27T13:55:32.968Z,83.20
2017-10-27T13:57:59.100Z,82.00
2017-10-27T14:00:25.193Z,82.50
2017-10-27T14:02:51.244Z,82.60
2017-10-27T14:05:17.278Z,81.60
2017-10-27T14:07:44.215Z,82.00
2017-10-27T14:10:10.495Z,78.80
2017-10-27T14:12:37.588Z,80.10
2017-10-27T14:15:03.626Z,81.10
2017-10-27T14:17:29.831Z,82.00
2017-10-27T14:19:55.843Z,83.10
2017-10-27T14:22:21.941Z,83.60
2017-10-27T14:24:48.634Z,84.40
2017-10-27T14:27:14.561Z,84.40
2017-10-27T14:29:41.035Z,86.20
2017-10-27T14:32:07.040Z,86.10
2017-10-27T14:34:33.006Z,85.80
2017-10-27T14:36:58.970Z,86.90
2017-10-27T14:39:25.927Z,87.70
2017-10-27T14:41:53.012Z,90.20
2017-10-27T14:44:19.215Z,90.80
2017-10-27T14:46:45.176Z,91.30
2017-10-27T14:49:11.137Z,91.90
2017-10-27T14:51:37.120Z,92.60
2017-10-27T14:54:03.178Z,92.70
2017-10-27T14:56:29.743Z,93.10
2017-10-27T14:58:55.800Z,93.50
2017-10-27T15:01:22.591Z,93.80
2017-10-27T15:03:49.374Z,94.60
2017-10-27T15:06:15.348Z,94.50
2017-10-27T15:08:41.379Z,94.80
2017-10-27T15:11:08.131Z,95.80
2017-10-27T15:13:34.145Z,95.70
2017-10-27T15:16:01.597Z,96.50
2017-10-27T15:18:27.579Z,96.50
2017-10-27T15:20:53.594Z,96.80
2017-10-27T15:23:20.952Z,97.30
2017-10-27T15:25:47.056Z,98.00
2017-10-27T15:28:13.870Z,98.40
2017-10-27T15:30:40.661Z,99.10
2017-10-27T15:33:08.536Z,99.10
2017-10-27T15:35:34.605Z,98.90
2017-10-27T15:38:01.161Z,99.30
2017-10-27T15:40:27.817Z,99.40
2017-10-27T15:42:55.295Z,99.90
2017-10-27T15:45:23.155Z,99.90
2017-10-27T15:47:49.210Z,99.90
2017-10-27T15:50:15.328Z,99.90
2017-10-27T15:52:41.380Z,99.90
2017-10-27T15:55:07.364Z,99.90
2017-10-27T15:57:33.426Z,99.90
2017-10-27T16:00:01.170Z,99.90
2017-10-27T16:02:28.375Z,99.90
2017-10-27T16:04:56.846Z,99.90
2017-10-27T16:07:23.971Z,99.90
2017-10-27T16:09:50.824Z,99.90
2017-10-27T16:12:16.899Z,99.90
2017-10-27T16:14:45.306Z,99.90
2017-10-27T16:17:12.475Z,99.90
2017-10-27T16:19:38.661Z,99.90
2017-10-27T16:22:05.931Z,99.90
2017-10-27T16:24:32.788Z,99.90
2017-10-27T16:26:58.783Z,99.90
2017-10-27T16:29:28.632Z,99.90
2017-10-27T16:31:55.793Z,99.90
2017-10-27T16:34:21.759Z,99.90
2017-10-27T16:36:48.487Z,99.90
2017-10-27T16:39:15.444Z,99.90
2017-10-27T16:41:42.326Z,99.90
2017-10-27T16:44:08.727Z,99.90
2017-10-27T16:46:34.850Z,99.90
2017-10-27T16:49:00.971Z,99.90
2017-10-27T16:51:27.007Z,99.90
2017-10-27T16:53:58.104Z,99.90
2017-10-27T16:56:27.960Z,99.90
2017-10-27T16:58:56.459Z,99.90
2017-10-27T17:01:23.284Z,99.90
2017-10-27T17:03:49.564Z,99.90
2017-10-27T17:06:16.340Z,99.90
2017-10-27T17:08:43.503Z,99.90
2017-10-27T17:11:09.688Z,99.90
2017-10-27T17:13:35.687Z,99.90
2017-10-27T17:16:02.165Z,99.90
2017-10-27T17:18:29.702Z,99.90
2017-10-27T17:20:55.694Z,99.90
2017-10-27T17:23:22.317Z,99.90
2017-10-27T17:25:48.790Z,99.90
2017-10-27T17:28:15.440Z,99.90
2017-10-27T17:30:41.638Z,99.90
2017-10-27T17:33:08.373Z,99.90
2017-10-27T17:35:34.461Z,99.90
2017-10-27T17:38:00.399Z,99.90
2017-10-27T17:40:26.492Z,99.90
2017-10-27T17:42:54.159Z,99.90
2017-10-27T17:45:21.147Z,99.90
2017-10-27T17:47:49.409Z,99.90
2017-10-27T17:50:15.354Z,99.90
2017-10-27T17:52:42.229Z,99.90
2017-10-27T17:55:08.256Z,99.90
2017-10-27T17:57:34.292Z,99.90
2017-10-27T18:00:00.501Z,99.90
2017-10-27T18:02:26.594Z,99.90
2017-10-27T18:04:52.599Z,99.90
2017-10-27T18:07:18.650Z,99.90
2017-10-27T18:09:44.652Z,99.90
2017-10-27T18:12:10.868Z,99.90
2017-10-27T18:14:38.051Z,99.90
2017-10-27T18:24:40.987Z,99.90
2017-10-27T18:27:07.653Z,99.90
2017-10-27T18:29:33.694Z,99.90
2017-10-27T18:31:59.715Z,99.90
2017-10-27T18:37:00.964Z,99.90
2017-10-27T18:42:00.850Z,99.90
2017-10-27T18:49:31.897Z,99.90
2017-10-27T18:57:01.294Z,99.90
2017-10-27T18:59:35.176Z,99.90
2017-10-27T19:07:07.707Z,99.90
2017-10-27T19:09:33.789Z,99.90
2017-10-27T19:12:01.667Z,99.90
2017-10-27T19:14:28.721Z,99.90
2017-10-27T19:16:54.990Z,99.90
2017-10-27T19:21:53.161Z,99.90
2017-10-27T19:24:21.638Z,99.90
2017-10-27T19:26:47.949Z,99.90
2017-10-27T19:29:13.977Z,99.90
2017-10-27T19:31:40.796Z,99.90
2017-10-27T19:34:08.429Z,99.90
2017-10-27T19:36:35.218Z,99.90
2017-10-27T19:39:01.596Z,99.90
2017-10-27T19:41:28.808Z,99.90
2017-10-27T19:43:55.041Z,99.90
2017-10-27T19:46:21.144Z,99.90
2017-10-27T19:48:49.441Z,99.90
2017-10-27T19:51:15.455Z,99.90
2017-10-27T19:53:42.444Z,99.90
2017-10-27T19:56:08.621Z,99.90
2017-10-27T19:58:35.615Z,99.90
2017-10-27T20:01:01.831Z,99.90
2017-10-27T20:03:29.302Z,99.90
2017-10-27T20:05:58.151Z,99.90
2017-10-27T20:08:24.192Z,99.90
2017-10-27T20:10:50.347Z,99.90
2017-10-27T20:13:16.431Z,99.90
2017-10-27T20:15:42.524Z,99.90
2017-10-27T20:18:08.526Z,99.90
2017-10-27T20:20:34.899Z,99.90
2017-10-27T20:23:01.191Z,99.90
2017-10-27T20:25:28.009Z,99.90
2017-10-27T20:27:54.197Z,99.90
2017-10-27T20:30:20.384Z,99.90
2017-10-27T20:32:46.340Z,99.90
2017-10-27T20:35:13.500Z,99.90
2017-10-27T20:37:39.632Z,99.90
2017-10-27T20:40:06.633Z,99.90
2017-10-27T20:42:33.143Z,99.90
2017-10-27T20:44:59.179Z,99.90
2017-10-27T20:47:25.260Z,99.90
2017-10-27T20:49:51.250Z,99.90
2017-10-27T20:52:18.221Z,99.90
2017-10-27T20:54:44.185Z,99.90
2017-10-27T20:57:10.269Z,99.90
2017-10-27T20:59:36.245Z,99.90
2017-10-27T21:02:02.365Z,99.90
2017-10-27T21:04:28.372Z,99.90
2017-10-27T21:06:54.380Z,99.90
2017-10-27T21:09:20.336Z,99.90
2017-10-27T21:11:46.327Z,99.90
2017-10-27T21:14:12.339Z,99.90
2017-10-27T21:16:39.283Z,99.90
2017-10-27T21:19:06.060Z,99.90
2017-10-27T21:21:32.288Z,99.90
2017-10-27T21:23:58.296Z,99.90
2017-10-27T21:26:24.305Z,99.90
2017-10-27T21:28:50.327Z,99.90
2017-10-27T21:31:16.493Z,99.90
2017-10-27T21:33:42.467Z,99.90
2017-10-27T21:36:08.651Z,99.90
2017-10-27T21:38:35.348Z,99.90
2017-10-27T21:41:01.287Z,99.90
2017-10-27T21:43:27.311Z,99.90
2017-10-27T21:45:53.311Z,99.90
2017-10-27T21:48:20.380Z,99.90
2017-10-27T21:50:46.412Z,99.90
2017-10-27T21:53:12.405Z,99.90
2017-10-27T21:55:38.432Z,99.90
2017-10-27T21:58:04.683Z,99.90
2017-10-27T22:00:30.847Z,99.90
2017-10-27T22:02:56.815Z,99.90
2017-10-27T22:05:22.891Z,99.90
2017-10-27T22:07:48.894Z,99.90
2017-10-27T22:10:14.884Z,99.90
2017-10-27T22:12:40.832Z,99.90
2017-10-27T22:15:06.889Z,99.90
2017-10-27T22:17:32.915Z,99.90
2017-10-27T22:19:59.285Z,99.90
2017-10-27T22:22:26.106Z,99.90
2017-10-27T22:24:52.252Z,99.90
2017-10-27T22:27:18.303Z,99.90
2017-10-27T22:29:44.712Z,99.90
2017-10-27T22:32:11.395Z,99.90
2017-10-27T22:34:38.185Z,99.90
2017-10-27T22:37:04.361Z,99.90
2017-10-27T22:39:30.532Z,99.90
2017-10-27T22:41:56.568Z,99.90
2017-10-27T22:44:24.097Z,99.90
2017-10-27T22:46:50.087Z,99.90
2017-10-27T22:49:16.972Z,99.90
2017-10-27T22:51:42.951Z,99.90
2017-10-27T22:54:09.691Z,99.90
2017-10-27T22:56:35.620Z,99.90
2017-10-27T22:59:02.349Z,99.90
2017-10-27T23:01:29.777Z,99.90
2017-10-27T23:03:55.826Z,99.90
2017-10-27T23:06:21.873Z,99.90
2017-10-27T23:08:47.851Z,99.90
2017-10-27T23:11:13.975Z,99.90
2017-10-27T23:13:40.000Z,99.90
2017-10-27T23:16:06.260Z,99.90
2017-10-27T23:18:32.969Z,99.90
2017-10-27T23:20:58.947Z,99.90
2017-10-27T23:23:25.048Z,99.90
2017-10-27T23:25:51.069Z,99.90
2017-10-27T23:28:17.216Z,99.90
2017-10-27T23:30:44.236Z,99.90
2017-10-27T23:33:10.961Z,99.90
2017-10-27T23:35:36.960Z,99.90
2017-10-27T23:38:02.989Z,99.90
2017-10-27T23:40:28.978Z,99.90
2017-10-27T23:42:54.970Z,99.90
2017-10-27T23:45:21.189Z,99.90
2017-10-27T23:47:47.249Z,99.90
2017-10-27T23:50:13.219Z,99.90
2017-10-27T23:52:39.249Z,99.90
2017-10-27T23:55:05.204Z,99.90
2017-10-27T23:57:31.264Z,99.90
2017-10-27T23:59:57.182Z,99.90
